Time;durP1;ratioP1;P1;durP2;ratioP2;P2;SDS_P1;SDS_P2;PMS_P1;PMS_P2;Temp;Humidity;BMP_temperature;BMP_pressure;BME280_temperature;BME280_humidity;BME280_pressure;Samples;Min_cycle;Max_cycle;Signal;HPM_P1;HPM_P2
2021/12/31 00:01:59;;;;;;;1.53;1.00;;;;;;;;;;4956230;28;20204;-85
2021/12/31 00:04:28;;;;;;;1.57;1.27;;;;;;;;;;4956441;28;20268;-85
2021/12/31 00:06:58;;;;;;;1.40;1.17;;;;;;;;;;4955838;28;20662;-85
2021/12/31 00:09:28;;;;;;;1.20;1.10;;;;;;;;;;4954517;28;20307;-84
2021/12/31 00:12:00;;;;;;;2.03;1.17;;;;;;;;;;4952455;28;20279;-85
2021/12/31 00:14:30;;;;;;;1.20;1.10;;;;;;;;;;4951510;28;20205;-85
2021/12/31 00:16:57;;;;;;;1.50;1.00;;;;;;;;;;4938457;29;20319;-85
2021/12/31 00:19:36;;;;;;;1.50;1.20;;;;;;;;;;4937284;29;20244;-85
2021/12/31 00:22:28;;;;;;;1.17;1.17;;;;;;;;;;4938944;28;20264;-85
2021/12/31 00:24:55;;;;;;;1.40;1.23;;;;;;;;;;4943267;29;20217;-85
2021/12/31 00:27:22;;;;;;;0.93;0.93;;;;;;;;;;4947496;28;20296;-84
2021/12/31 00:29:58;;;;;;;1.63;1.10;;;;;;;;;;4939704;28;20236;-85
2021/12/31 00:32:28;;;;;;;2.20;1.10;;;;;;;;;;4943785;28;20207;-85
2021/12/31 00:34:55;;;;;;;1.30;1.20;;;;;;;;;;4943521;28;20255;-86
2021/12/31 00:37:32;;;;;;;1.20;1.20;;;;;;;;;;4961148;28;20207;-85
2021/12/31 00:39:59;;;;;;;1.10;1.10;;;;;;;;;;4960564;28;20228;-85
2021/12/31 00:42:32;;;;;;;1.20;1.10;;;;;;;;;;4957296;28;20238;-85
2021/12/31 00:45:02;;;;;;;1.40;1.10;;;;;;;;;;4956358;28;20235;-85
2021/12/31 00:47:32;;;;;;;0.90;0.90;;;;;;;;;;4950907;28;20213;-85
2021/12/31 00:50:07;;;;;;;1.00;1.00;;;;;;;;;;4943499;28;20233;-84
2021/12/31 00:52:38;;;;;;;1.30;1.20;;;;;;;;;;4946305;28;20259;-85
2021/12/31 00:55:09;;;;;;;2.27;1.20;;;;;;;;;;4958536;28;20228;-86
2021/12/31 00:57:39;;;;;;;2.33;1.30;;;;;;;;;;4954658;28;20216;-85
2021/12/31 01:00:08;;;;;;;1.23;1.13;;;;;;;;;;4955309;28;20236;-85
2021/12/31 01:02:35;;;;;;;1.33;1.17;;;;;;;;;;4953351;29;20253;-85
2021/12/31 01:05:03;;;;;;;1.97;1.17;;;;;;;;;;4952695;29;20220;-85
2021/12/31 01:07:31;;;;;;;2.40;1.20;;;;;;;;;;4965477;28;20239;-85
2021/12/31 01:10:01;;;;;;;1.47;1.20;;;;;;;;;;4963335;28;20227;-85
2021/12/31 01:12:29;;;;;;;2.60;1.27;;;;;;;;;;4953125;28;20205;-85
2021/12/31 01:15:01;;;;;;;1.10;1.10;;;;;;;;;;4945955;29;20292;-86
2021/12/31 01:17:46;;;;;;;2.03;1.43;;;;;;;;;;4950934;29;20213;-85
2021/12/31 01:20:15;;;;;;;1.40;1.27;;;;;;;;;;4952874;29;20235;-85
2021/12/31 01:22:42;;;;;;;1.70;1.60;;;;;;;;;;4963049;28;20232;-86
2021/12/31 01:25:12;;;;;;;1.10;1.10;;;;;;;;;;4957664;28;20233;-85
2021/12/31 01:27:39;;;;;;;1.17;1.10;;;;;;;;;;4945864;29;20213;-85
2021/12/31 01:30:13;;;;;;;1.20;1.10;;;;;;;;;;4960255;28;20233;-86
2021/12/31 01:32:42;;;;;;;2.27;1.37;;;;;;;;;;4962676;28;20231;-86
2021/12/31 01:35:10;;;;;;;2.10;1.30;;;;;;;;;;4954942;28;20212;-86
2021/12/31 01:37:37;;;;;;;2.00;1.30;;;;;;;;;;4954242;28;20304;-85
2021/12/31 01:42:43;;;;;;;1.70;1.40;;;;;;;;;;4996988;28;20215;-85
2021/12/31 01:45:17;;;;;;;1.80;1.50;;;;;;;;;;5006559;28;20199;-84
2021/12/31 01:47:59;;;;;;;1.73;1.30;;;;;;;;;;5002121;28;20199;-84
2021/12/31 01:50:29;;;;;;;1.60;1.50;;;;;;;;;;5002633;28;20207;-83
2021/12/31 01:52:57;;;;;;;1.97;1.87;;;;;;;;;;4984559;28;20203;-84
2021/12/31 01:55:24;;;;;;;1.53;1.40;;;;;;;;;;4989454;28;20314;-84
2021/12/31 01:57:55;;;;;;;2.43;1.60;;;;;;;;;;4987254;28;20212;-84
2021/12/31 02:00:22;;;;;;;1.93;1.73;;;;;;;;;;4981726;28;20206;-84
2021/12/31 02:02:50;;;;;;;1.50;1.40;;;;;;;;;;4980551;28;20215;-84
2021/12/31 02:05:17;;;;;;;1.60;1.50;;;;;;;;;;4980340;28;20250;-84
2021/12/31 02:07:44;;;;;;;1.57;1.47;;;;;;;;;;4980857;28;20212;-84
2021/12/31 02:10:12;;;;;;;2.20;1.60;;;;;;;;;;4981211;28;20212;-84
2021/12/31 02:12:42;;;;;;;1.93;1.73;;;;;;;;;;4979479;28;20232;-84
2021/12/31 02:15:11;;;;;;;1.67;1.53;;;;;;;;;;4981381;28;20252;-84
2021/12/31 02:17:38;;;;;;;1.83;1.60;;;;;;;;;;4977361;28;20239;-84
2021/12/31 02:20:08;;;;;;;1.70;1.60;;;;;;;;;;4982293;28;20662;-84
2021/12/31 02:22:40;;;;;;;2.47;1.70;;;;;;;;;;4977114;28;20239;-84
2021/12/31 02:25:08;;;;;;;1.80;1.50;;;;;;;;;;4972898;28;20227;-84
2021/12/31 02:27:38;;;;;;;1.70;1.60;;;;;;;;;;4976657;28;20325;-84
2021/12/31 02:30:06;;;;;;;2.00;1.80;;;;;;;;;;4978878;28;20210;-85
2021/12/31 02:32:33;;;;;;;1.70;1.60;;;;;;;;;;4977379;28;20255;-84
2021/12/31 02:35:00;;;;;;;1.93;1.63;;;;;;;;;;4978520;28;20231;-84
2021/12/31 02:37:29;;;;;;;1.67;1.57;;;;;;;;;;4979248;28;20227;-84
2021/12/31 02:39:57;;;;;;;3.07;1.70;;;;;;;;;;4979604;28;20211;-84
2021/12/31 02:42:24;;;;;;;1.60;1.50;;;;;;;;;;4978903;28;20231;-87
2021/12/31 02:44:54;;;;;;;1.77;1.60;;;;;;;;;;4978985;28;20208;-84
2021/12/31 02:47:21;;;;;;;1.80;1.70;;;;;;;;;;4979987;28;20196;-84
2021/12/31 02:49:49;;;;;;;2.57;1.63;;;;;;;;;;4979389;28;20196;-84
2021/12/31 02:52:17;;;;;;;1.83;1.73;;;;;;;;;;4978264;28;20235;-84
2021/12/31 02:54:47;;;;;;;2.70;1.60;;;;;;;;;;4979331;28;20211;-84
2021/12/31 02:57:14;;;;;;;2.57;1.53;;;;;;;;;;4978780;28;20236;-83
2021/12/31 02:59:42;;;;;;;1.70;1.60;;;;;;;;;;4977619;28;20282;-84
2021/12/31 03:02:09;;;;;;;1.60;1.50;;;;;;;;;;4976832;28;20220;-84
2021/12/31 03:04:38;;;;;;;2.00;1.80;;;;;;;;;;4977795;28;20204;-84
2021/12/31 03:07:07;;;;;;;2.27;2.07;;;;;;;;;;4972343;28;20211;-83
2021/12/31 03:09:34;;;;;;;2.10;1.80;;;;;;;;;;4977419;28;20208;-84
2021/12/31 03:12:03;;;;;;;2.07;1.83;;;;;;;;;;4977287;28;20247;-83
2021/12/31 03:14:31;;;;;;;2.23;1.90;;;;;;;;;;4977718;28;20219;-84
2021/12/31 03:16:59;;;;;;;2.03;1.70;;;;;;;;;;4979004;28;20299;-84
2021/12/31 03:19:26;;;;;;;1.73;1.63;;;;;;;;;;4979121;28;20239;-84
2021/12/31 03:21:54;;;;;;;1.80;1.70;;;;;;;;;;4978079;28;20666;-83
2021/12/31 03:24:21;;;;;;;2.40;2.03;;;;;;;;;;4979313;28;20227;-84
2021/12/31 03:26:48;;;;;;;2.10;1.83;;;;;;;;;;4979517;28;20246;-84
2021/12/31 03:29:17;;;;;;;1.80;1.70;;;;;;;;;;4978727;28;20235;-83
2021/12/31 03:31:44;;;;;;;1.80;1.70;;;;;;;;;;4977960;28;20323;-84
2021/12/31 03:34:14;;;;;;;3.00;2.23;;;;;;;;;;4978206;28;20254;-84
2021/12/31 03:36:41;;;;;;;2.17;1.80;;;;;;;;;;4978398;28;20212;-84
2021/12/31 03:39:09;;;;;;;2.20;2.03;;;;;;;;;;4977630;28;20262;-84
2021/12/31 03:41:36;;;;;;;2.30;2.10;;;;;;;;;;4977257;28;20303;-84
2021/12/31 03:44:04;;;;;;;2.70;2.10;;;;;;;;;;4978229;28;20264;-84
2021/12/31 03:46:32;;;;;;;2.20;2.00;;;;;;;;;;4977624;28;20242;-83
2021/12/31 03:49:00;;;;;;;3.03;1.73;;;;;;;;;;4977898;28;20204;-84
2021/12/31 03:51:27;;;;;;;1.80;1.70;;;;;;;;;;4977402;28;20223;-84
2021/12/31 03:53:54;;;;;;;2.33;2.00;;;;;;;;;;4978407;28;20236;-84
2021/12/31 03:56:23;;;;;;;2.33;2.13;;;;;;;;;;4979748;28;20219;-83
2021/12/31 03:58:50;;;;;;;1.70;1.60;;;;;;;;;;4979709;28;20291;-84
2021/12/31 04:01:18;;;;;;;1.90;1.80;;;;;;;;;;4976816;28;20259;-84
2021/12/31 04:03:47;;;;;;;3.50;1.87;;;;;;;;;;4978804;28;20203;-83
2021/12/31 04:06:14;;;;;;;1.90;1.80;;;;;;;;;;4978804;28;20227;-84
2021/12/31 04:08:41;;;;;;;2.10;1.90;;;;;;;;;;4979080;28;20227;-84
2021/12/31 04:11:10;;;;;;;2.20;2.00;;;;;;;;;;4978625;28;20242;-84
2021/12/31 04:13:37;;;;;;;2.17;1.77;;;;;;;;;;4979909;28;20223;-84
2021/12/31 04:16:05;;;;;;;2.10;1.90;;;;;;;;;;4978718;28;20223;-84
2021/12/31 04:18:32;;;;;;;3.20;2.13;;;;;;;;;;4977353;28;20210;-85
2021/12/31 04:21:01;;;;;;;2.40;2.10;;;;;;;;;;4976488;28;20259;-84
2021/12/31 04:23:32;;;;;;;1.97;1.80;;;;;;;;;;4979266;28;20242;-85
2021/12/31 04:26:00;;;;;;;2.80;2.10;;;;;;;;;;4979493;28;20208;-84
2021/12/31 04:28:28;;;;;;;2.33;2.13;;;;;;;;;;4976002;28;20637;-85
2021/12/31 04:30:57;;;;;;;2.47;2.10;;;;;;;;;;4973805;28;20239;-85
2021/12/31 04:33:24;;;;;;;3.13;2.33;;;;;;;;;;4970159;28;20243;-85
2021/12/31 04:35:51;;;;;;;2.83;2.17;;;;;;;;;;4976967;28;20568;-85
2021/12/31 04:38:20;;;;;;;2.80;2.03;;;;;;;;;;4978096;28;20282;-85
2021/12/31 04:40:47;;;;;;;3.90;2.47;;;;;;;;;;4977494;28;20235;-84
2021/12/31 04:43:14;;;;;;;2.40;2.20;;;;;;;;;;4978116;28;20204;-85
2021/12/31 04:45:42;;;;;;;2.73;2.20;;;;;;;;;;4978189;28;20292;-85
2021/12/31 04:48:12;;;;;;;2.13;1.90;;;;;;;;;;4977831;28;20279;-85
2021/12/31 04:50:39;;;;;;;2.40;2.20;;;;;;;;;;4977357;28;20224;-85
2021/12/31 04:53:07;;;;;;;2.20;2.00;;;;;;;;;;4977789;28;20196;-85
2021/12/31 04:55:35;;;;;;;2.73;2.27;;;;;;;;;;4978868;28;20208;-84
2021/12/31 04:58:03;;;;;;;2.10;1.90;;;;;;;;;;4977975;28;20288;-85
2021/12/31 05:00:30;;;;;;;2.23;2.03;;;;;;;;;;4978694;28;20248;-85
2021/12/31 05:02:57;;;;;;;2.23;2.03;;;;;;;;;;4978763;28;20256;-85
2021/12/31 05:05:24;;;;;;;2.40;2.20;;;;;;;;;;4975564;28;20212;-85
2021/12/31 05:07:51;;;;;;;2.30;2.10;;;;;;;;;;4976620;28;20204;-85
2021/12/31 05:10:19;;;;;;;2.30;2.10;;;;;;;;;;4989037;28;20307;-85
2021/12/31 05:12:52;;;;;;;3.00;2.07;;;;;;;;;;4977826;28;20255;-85
2021/12/31 05:15:26;;;;;;;2.43;2.23;;;;;;;;;;4974109;28;20206;-85
2021/12/31 05:17:53;;;;;;;2.50;2.27;;;;;;;;;;4978036;28;20223;-85
2021/12/31 05:20:20;;;;;;;2.87;2.00;;;;;;;;;;4978524;28;20200;-85
2021/12/31 05:22:48;;;;;;;2.17;1.97;;;;;;;;;;4978510;28;20216;-84
2021/12/31 05:25:16;;;;;;;2.57;2.00;;;;;;;;;;4976985;28;20231;-84
2021/12/31 05:27:44;;;;;;;2.50;2.00;;;;;;;;;;4979608;28;20204;-84
2021/12/31 05:30:13;;;;;;;2.50;2.30;;;;;;;;;;4985257;28;20639;-85
2021/12/31 05:32:40;;;;;;;2.20;2.00;;;;;;;;;;4981227;28;20251;-84
2021/12/31 05:35:08;;;;;;;2.43;2.10;;;;;;;;;;4982389;28;20335;-85
2021/12/31 05:37:35;;;;;;;2.67;2.30;;;;;;;;;;4981826;28;20216;-85
2021/12/31 05:40:03;;;;;;;2.50;2.30;;;;;;;;;;4981784;28;20224;-85
2021/12/31 05:42:30;;;;;;;3.60;2.67;;;;;;;;;;4981386;28;20224;-85
2021/12/31 05:44:57;;;;;;;3.40;2.30;;;;;;;;;;4981594;28;20211;-85
2021/12/31 05:47:26;;;;;;;3.20;2.77;;;;;;;;;;4983267;28;20231;-85
2021/12/31 05:49:53;;;;;;;2.80;2.40;;;;;;;;;;4991039;28;20208;-85
2021/12/31 05:52:21;;;;;;;3.07;2.77;;;;;;;;;;4982974;28;20318;-85
2021/12/31 05:54:48;;;;;;;2.70;2.50;;;;;;;;;;4983045;28;20299;-85
2021/12/31 05:57:15;;;;;;;3.23;2.30;;;;;;;;;;4981785;28;20247;-85
2021/12/31 05:59:42;;;;;;;3.87;2.57;;;;;;;;;;4981386;28;20231;-85
2021/12/31 06:02:10;;;;;;;3.37;2.30;;;;;;;;;;4980584;28;20258;-85
2021/12/31 06:04:38;;;;;;;3.00;2.40;;;;;;;;;;4980476;28;20324;-85
2021/12/31 06:07:06;;;;;;;3.97;2.57;;;;;;;;;;4981275;28;20196;-85
2021/12/31 06:09:34;;;;;;;2.43;2.23;;;;;;;;;;4980286;28;20239;-85
2021/12/31 06:12:01;;;;;;;2.90;2.60;;;;;;;;;;4979761;28;20291;-84
2021/12/31 06:14:30;;;;;;;2.40;2.20;;;;;;;;;;4981090;28;20227;-84
2021/12/31 06:17:05;;;;;;;2.87;2.63;;;;;;;;;;4980169;28;20247;-84
2021/12/31 06:19:32;;;;;;;3.17;2.70;;;;;;;;;;4981130;28;20210;-85
2021/12/31 06:22:01;;;;;;;3.00;2.70;;;;;;;;;;4979255;28;20250;-84
2021/12/31 06:24:31;;;;;;;2.60;2.40;;;;;;;;;;4979777;28;20234;-84
2021/12/31 06:26:58;;;;;;;2.50;2.23;;;;;;;;;;4980799;28;20662;-84
2021/12/31 06:29:25;;;;;;;2.80;2.57;;;;;;;;;;4979994;28;20192;-84
2021/12/31 06:31:52;;;;;;;3.33;2.50;;;;;;;;;;4979814;28;20231;-84
2021/12/31 06:34:20;;;;;;;2.90;2.67;;;;;;;;;;4979610;28;20227;-84
2021/12/31 06:36:47;;;;;;;2.90;2.60;;;;;;;;;;4977095;28;20259;-84
2021/12/31 06:39:16;;;;;;;3.40;2.37;;;;;;;;;;4977055;28;20227;-84
2021/12/31 06:41:43;;;;;;;3.73;2.57;;;;;;;;;;4975546;28;20227;-84
2021/12/31 06:44:10;;;;;;;3.30;2.70;;;;;;;;;;4982941;28;20208;-84
2021/12/31 06:46:37;;;;;;;3.73;2.90;;;;;;;;;;4980326;28;20216;-84
2021/12/31 06:49:04;;;;;;;2.97;2.63;;;;;;;;;;4984542;28;20230;-84
2021/12/31 06:51:32;;;;;;;2.80;2.60;;;;;;;;;;4987698;28;20223;-85
2021/12/31 06:53:59;;;;;;;2.80;2.60;;;;;;;;;;4993344;28;20238;-84
2021/12/31 06:56:28;;;;;;;3.33;2.70;;;;;;;;;;4989489;28;20203;-84
2021/12/31 06:58:55;;;;;;;3.13;2.57;;;;;;;;;;4976349;28;20220;-84
2021/12/31 07:01:24;;;;;;;2.93;2.47;;;;;;;;;;4975868;28;20231;-84
2021/12/31 07:03:51;;;;;;;3.67;3.10;;;;;;;;;;4976854;28;20212;-84
2021/12/31 07:06:19;;;;;;;3.80;2.70;;;;;;;;;;4976809;28;20204;-84
2021/12/31 07:08:46;;;;;;;3.50;2.97;;;;;;;;;;4979086;28;20234;-84
2021/12/31 07:11:19;;;;;;;3.17;2.63;;;;;;;;;;4975922;28;20223;-85
2021/12/31 07:13:56;;;;;;;3.60;2.90;;;;;;;;;;4976947;28;20276;-85
2021/12/31 07:16:23;;;;;;;3.07;2.63;;;;;;;;;;4980299;28;20219;-85
2021/12/31 07:18:50;;;;;;;3.43;3.10;;;;;;;;;;4975247;28;20323;-84
2021/12/31 07:21:18;;;;;;;3.73;2.70;;;;;;;;;;4975539;28;20290;-85
2021/12/31 07:23:45;;;;;;;2.80;2.60;;;;;;;;;;4975973;28;20242;-84
2021/12/31 07:26:12;;;;;;;3.63;2.93;;;;;;;;;;4978761;28;20234;-85
2021/12/31 07:28:39;;;;;;;3.70;3.30;;;;;;;;;;4976818;28;20199;-84
2021/12/31 07:31:12;;;;;;;2.83;2.63;;;;;;;;;;4976513;28;20306;-84
2021/12/31 07:33:40;;;;;;;3.77;3.27;;;;;;;;;;4978916;28;20211;-85
2021/12/31 07:36:07;;;;;;;3.43;2.97;;;;;;;;;;4977248;28;20303;-85
2021/12/31 07:38:37;;;;;;;4.10;3.17;;;;;;;;;;4976588;28;20302;-84
2021/12/31 07:41:04;;;;;;;3.50;2.80;;;;;;;;;;4996360;23;20223;-85
2021/12/31 07:43:32;;;;;;;3.13;2.83;;;;;;;;;;4949482;28;20229;-86
2021/12/31 07:46:02;;;;;;;3.47;3.17;;;;;;;;;;4960967;28;20212;-87
2021/12/31 07:48:32;;;;;;;3.90;2.87;;;;;;;;;;4951888;28;20675;-87
2021/12/31 07:51:03;;;;;;;4.23;3.30;;;;;;;;;;4968100;28;20215;-87
2021/12/31 07:53:30;;;;;;;4.00;3.60;;;;;;;;;;4966389;28;20291;-87
2021/12/31 07:55:58;;;;;;;3.77;3.43;;;;;;;;;;4961512;28;20242;-90
2021/12/31 07:58:27;;;;;;;4.03;3.30;;;;;;;;;;4967468;28;20244;-86
2021/12/31 08:00:59;;;;;;;4.70;4.07;;;;;;;;;;4964957;28;20208;-87
2021/12/31 08:03:31;;;;;;;3.87;3.30;;;;;;;;;;4972519;28;20209;-88
2021/12/31 08:06:00;;;;;;;4.23;3.63;;;;;;;;;;4974193;28;20228;-87
2021/12/31 08:08:29;;;;;;;5.40;3.70;;;;;;;;;;4978908;28;20271;-87
2021/12/31 08:10:56;;;;;;;3.67;3.37;;;;;;;;;;4980253;28;20215;-86
2021/12/31 08:13:30;;;;;;;2.97;2.77;;;;;;;;;;4961826;28;20296;-86
2021/12/31 08:16:00;;;;;;;4.53;3.20;;;;;;;;;;4958405;28;20212;-85
2021/12/31 08:18:28;;;;;;;4.03;3.00;;;;;;;;;;4955605;28;20225;-87
2021/12/31 08:20:57;;;;;;;3.87;3.03;;;;;;;;;;4963253;28;20268;-86
2021/12/31 08:23:28;;;;;;;3.57;3.20;;;;;;;;;;4970297;28;20225;-86
2021/12/31 08:25:56;;;;;;;3.57;3.17;;;;;;;;;;4962723;28;20223;-86
2021/12/31 08:28:23;;;;;;;4.73;3.00;;;;;;;;;;4955809;28;20196;-86
2021/12/31 08:30:52;;;;;;;3.47;3.17;;;;;;;;;;4954464;28;20212;-84
2021/12/31 08:33:20;;;;;;;3.67;3.20;;;;;;;;;;4957999;28;20208;-84
2021/12/31 08:35:47;;;;;;;5.00;3.70;;;;;;;;;;4956552;28;20205;-85
2021/12/31 08:38:14;;;;;;;4.63;3.93;;;;;;;;;;4953677;28;20224;-85
2021/12/31 08:40:44;;;;;;;4.20;3.70;;;;;;;;;;4960040;28;20205;-86
2021/12/31 08:43:12;;;;;;;4.77;4.23;;;;;;;;;;4963512;28;20228;-85
2021/12/31 08:45:39;;;;;;;5.93;4.77;;;;;;;;;;4956430;28;20217;-85
2021/12/31 08:48:07;;;;;;;5.90;5.07;;;;;;;;;;4955093;28;20204;-85
2021/12/31 08:50:36;;;;;;;5.70;4.70;;;;;;;;;;4948098;28;20289;-85
2021/12/31 08:53:06;;;;;;;6.10;5.00;;;;;;;;;;4949306;28;20265;-85
2021/12/31 08:55:33;;;;;;;7.17;5.83;;;;;;;;;;4947664;28;20260;-86
2021/12/31 08:58:02;;;;;;;6.77;5.80;;;;;;;;;;4956994;28;20233;-87
2021/12/31 09:00:30;;;;;;;8.00;6.40;;;;;;;;;;4957650;28;20232;-85
2021/12/31 09:08:37;;;;;;;7.37;6.27;;;;;;;;;;4950547;28;20236;-88
2021/12/31 09:11:05;;;;;;;9.43;7.27;;;;;;;;;;4963758;28;20236;-87
2021/12/31 09:13:42;;;;;;;11.00;7.70;;;;;;;;;;4954970;28;20215;-85
2021/12/31 09:19:35;;;;;;;9.33;6.87;;;;;;;;;;4962604;28;20227;-87
2021/12/31 09:22:39;;;;;;;7.20;6.07;;;;;;;;;;4960750;28;20238;-88
2021/12/31 09:34:51;;;;;;;7.27;5.53;;;;;;;;;;4919320;28;20205;-85
2021/12/31 09:46:41;;;;;;;6.77;6.07;;;;;;;;;;4959057;28;20208;-88
2021/12/31 09:49:19;;;;;;;7.40;6.60;;;;;;;;;;4944346;28;20236;-85
2021/12/31 09:51:51;;;;;;;5.90;5.03;;;;;;;;;;4959565;28;20270;-89
2021/12/31 09:54:22;;;;;;;9.53;8.13;;;;;;;;;;4957867;28;20276;-84
2021/12/31 09:56:49;;;;;;;8.80;7.43;;;;;;;;;;4961470;28;20213;-83
2021/12/31 09:59:16;;;;;;;7.03;5.80;;;;;;;;;;4976661;28;20266;-84
2021/12/31 10:01:47;;;;;;;9.37;8.10;;;;;;;;;;4957351;28;20263;-83
2021/12/31 10:04:15;;;;;;;5.97;4.97;;;;;;;;;;4959743;28;20263;-84
2021/12/31 10:06:58;;;;;;;5.17;4.53;;;;;;;;;;4968458;28;20689;-83
2021/12/31 10:09:25;;;;;;;5.13;4.53;;;;;;;;;;4963984;28;20203;-84
2021/12/31 10:11:52;;;;;;;4.77;4.27;;;;;;;;;;4960124;28;20232;-83
2021/12/31 10:14:33;;;;;;;5.53;4.60;;;;;;;;;;4958161;28;20208;-84
2021/12/31 10:17:01;;;;;;;5.17;4.67;;;;;;;;;;4971884;28;20219;-83
2021/12/31 10:19:29;;;;;;;5.33;4.50;;;;;;;;;;4971611;28;20236;-84
2021/12/31 10:21:57;;;;;;;5.07;4.57;;;;;;;;;;4969568;28;20252;-83
2021/12/31 10:24:25;;;;;;;4.77;4.27;;;;;;;;;;4965537;28;20270;-83
2021/12/31 10:26:53;;;;;;;4.63;4.13;;;;;;;;;;4967283;28;20200;-83
2021/12/31 10:29:21;;;;;;;6.00;5.40;;;;;;;;;;4965934;28;20232;-84
2021/12/31 10:31:51;;;;;;;5.47;4.97;;;;;;;;;;4975885;28;20263;-83
2021/12/31 10:34:33;;;;;;;5.43;4.90;;;;;;;;;;4969902;28;20235;-83
2021/12/31 10:37:01;;;;;;;6.90;6.07;;;;;;;;;;4965007;28;20211;-83
2021/12/31 10:39:31;;;;;;;5.67;4.70;;;;;;;;;;4974889;28;20255;-83
2021/12/31 10:42:05;;;;;;;5.20;4.60;;;;;;;;;;4972710;28;20239;-83
2021/12/31 10:44:42;;;;;;;5.83;4.43;;;;;;;;;;4972924;28;20289;-83
2021/12/31 10:47:11;;;;;;;4.67;4.10;;;;;;;;;;4960746;28;20208;-83
2021/12/31 10:50:04;;;;;;;5.47;4.97;;;;;;;;;;4958769;28;20201;-83
2021/12/31 10:52:37;;;;;;;4.33;3.93;;;;;;;;;;4949959;28;20228;-83
2021/12/31 10:55:15;;;;;;;5.20;4.60;;;;;;;;;;4960161;28;20227;-83
2021/12/31 10:57:43;;;;;;;4.40;4.00;;;;;;;;;;4965144;28;20228;-83
2021/12/31 11:00:11;;;;;;;4.53;4.03;;;;;;;;;;4970634;28;20225;-83
2021/12/31 11:02:39;;;;;;;4.77;3.93;;;;;;;;;;4964424;28;20315;-83
2021/12/31 11:05:10;;;;;;;5.07;4.30;;;;;;;;;;4957279;28;20212;-82
2021/12/31 11:07:38;;;;;;;5.10;4.60;;;;;;;;;;4957751;28;20213;-82
2021/12/31 11:10:06;;;;;;;4.47;4.03;;;;;;;;;;4965164;28;20236;-83
2021/12/31 11:12:34;;;;;;;4.60;3.70;;;;;;;;;;4973843;28;20228;-83
2021/12/31 11:15:02;;;;;;;4.47;4.07;;;;;;;;;;4961491;28;20200;-83
2021/12/31 11:17:30;;;;;;;3.60;3.30;;;;;;;;;;4970530;28;20204;-83
2021/12/31 11:19:58;;;;;;;4.53;4.13;;;;;;;;;;4963237;28;20236;-82
2021/12/31 11:22:27;;;;;;;6.07;4.10;;;;;;;;;;4968059;28;20235;-83
2021/12/31 11:24:54;;;;;;;4.10;3.70;;;;;;;;;;4970688;28;20273;-83
2021/12/31 11:27:32;;;;;;;4.77;3.80;;;;;;;;;;4975469;28;20255;-84
2021/12/31 11:30:00;;;;;;;4.73;4.33;;;;;;;;;;4964292;28;20256;-83
2021/12/31 11:32:48;;;;;;;5.30;4.80;;;;;;;;;;4969535;28;20327;-83
2021/12/31 11:35:28;;;;;;;4.40;4.00;;;;;;;;;;4943522;28;20324;-83
2021/12/31 11:37:57;;;;;;;4.80;4.40;;;;;;;;;;4967152;28;20235;-83
2021/12/31 11:40:28;;;;;;;4.83;4.27;;;;;;;;;;4972879;28;20736;-82
2021/12/31 11:43:14;;;;;;;5.03;3.93;;;;;;;;;;4974286;28;20248;-81
2021/12/31 11:45:41;;;;;;;4.20;3.77;;;;;;;;;;4976513;28;20227;-84
2021/12/31 11:48:23;;;;;;;3.97;3.57;;;;;;;;;;4976262;28;20227;-83
2021/12/31 11:51:05;;;;;;;4.00;3.70;;;;;;;;;;4953314;28;20308;-83
2021/12/31 11:53:34;;;;;;;4.10;3.70;;;;;;;;;;4963561;28;20231;-83
2021/12/31 11:56:01;;;;;;;3.50;3.13;;;;;;;;;;4957144;28;20308;-84
2021/12/31 11:58:38;;;;;;;4.57;4.03;;;;;;;;;;4969991;28;20315;-82
2021/12/31 12:01:20;;;;;;;5.87;4.00;;;;;;;;;;4964879;28;20247;-83
2021/12/31 12:03:48;;;;;;;3.80;3.40;;;;;;;;;;4944501;28;20275;-84
2021/12/31 12:06:30;;;;;;;3.72;3.40;;;;;;;;;;4962601;28;20203;-83
2021/12/31 12:08:58;;;;;;;4.37;3.97;;;;;;;;;;4962357;28;20228;-83
2021/12/31 12:11:44;;;;;;;3.93;3.53;;;;;;;;;;4957566;28;20232;-85
2021/12/31 12:14:28;;;;;;;4.50;4.10;;;;;;;;;;4961955;28;20401;-85
2021/12/31 12:19:56;;;;;;;4.33;3.93;;;;;;;;;;4953811;28;20216;-83
2021/12/31 12:22:27;;;;;;;4.37;3.97;;;;;;;;;;4954966;28;20228;-83
2021/12/31 12:24:57;;;;;;;4.37;3.97;;;;;;;;;;4958080;28;20200;-83
2021/12/31 12:27:25;;;;;;;4.60;4.20;;;;;;;;;;4954564;28;20279;-84
2021/12/31 12:29:53;;;;;;;5.10;4.70;;;;;;;;;;4953580;28;20200;-83
2021/12/31 12:32:31;;;;;;;5.10;4.60;;;;;;;;;;4953995;28;20287;-84
2021/12/31 12:35:04;;;;;;;4.97;4.57;;;;;;;;;;4957213;28;20215;-83
2021/12/31 12:37:41;;;;;;;8.77;7.50;;;;;;;;;;4957313;28;20212;-86
2021/12/31 12:49:40;;;;;;;5.33;4.93;;;;;;;;;;4975018;28;20192;-83
2021/12/31 12:52:24;;;;;;;5.33;4.87;;;;;;;;;;4976542;28;20232;-85
2021/12/31 12:55:07;;;;;;;4.30;4.00;;;;;;;;;;4976107;28;20201;-85
2021/12/31 13:00:49;;;;;;;4.82;4.32;;;;;;;;;;4973209;28;20232;-85
2021/12/31 13:06:13;;;;;;;4.60;4.20;;;;;;;;;;4977400;28;20216;-86
2021/12/31 13:08:40;;;;;;;4.68;4.28;;;;;;;;;;4974076;28;20188;-86
2021/12/31 13:11:08;;;;;;;4.90;4.40;;;;;;;;;;4988883;28;20232;-86
2021/12/31 13:13:37;;;;;;;4.45;4.07;;;;;;;;;;4979875;28;20261;-85
2021/12/31 13:16:11;;;;;;;4.07;3.78;;;;;;;;;;4982545;28;20196;-85
2021/12/31 13:31:17;;;;;;;3.08;2.88;;;;;;;;;;4930277;29;20200;-88
2021/12/31 13:33:50;;;;;;;3.83;3.53;;;;;;;;;;4883049;29;20212;-87
2021/12/31 13:36:29;;;;;;;4.10;3.70;;;;;;;;;;4935332;28;20257;-85
2021/12/31 13:39:10;;;;;;;3.30;3.00;;;;;;;;;;4938439;29;20229;-85
2021/12/31 13:47:58;;;;;;;2.50;2.30;;;;;;;;;;4868343;29;20213;-86
2021/12/31 13:53:31;;;;;;;5.50;3.70;;;;;;;;;;4912552;29;20233;-86
2021/12/31 13:56:02;;;;;;;2.60;2.38;;;;;;;;;;4918547;29;20210;-85
2021/12/31 13:58:39;;;;;;;2.30;2.10;;;;;;;;;;4917724;29;20220;-84
2021/12/31 14:07:34;;;;;;;2.40;2.20;;;;;;;;;;4899733;29;20198;-82
2021/12/31 14:10:02;;;;;;;2.55;2.35;;;;;;;;;;4921809;29;20209;-81
2021/12/31 14:12:30;;;;;;;2.40;2.20;;;;;;;;;;4910845;29;20222;-83
2021/12/31 14:14:57;;;;;;;2.35;2.15;;;;;;;;;;4908761;29;20214;-85
2021/12/31 14:17:25;;;;;;;2.60;2.40;;;;;;;;;;4910877;29;20380;-82
2021/12/31 14:19:52;;;;;;;6.82;6.13;;;;;;;;;;4910413;29;20402;-85
2021/12/31 14:22:19;;;;;;;6.05;5.40;;;;;;;;;;4902507;29;20245;-83
2021/12/31 14:24:48;;;;;;;3.88;3.20;;;;;;;;;;4901401;29;20210;-83
2021/12/31 14:27:15;;;;;;;5.28;4.53;;;;;;;;;;4903835;29;20206;-84
2021/12/31 14:29:42;;;;;;;3.00;2.80;;;;;;;;;;4903876;29;20211;-83
2021/12/31 14:32:10;;;;;;;2.97;2.60;;;;;;;;;;4905742;29;20265;-82
2021/12/31 14:34:37;;;;;;;2.55;2.38;;;;;;;;;;4901556;29;20237;-83
2021/12/31 14:37:08;;;;;;;3.43;3.10;;;;;;;;;;4906774;29;20284;-83
2021/12/31 14:39:39;;;;;;;3.30;2.70;;;;;;;;;;4964350;28;20216;-84
2021/12/31 14:42:09;;;;;;;4.03;3.03;;;;;;;;;;4962767;28;20279;-84
2021/12/31 14:44:37;;;;;;;3.00;2.80;;;;;;;;;;4962893;28;20208;-82
2021/12/31 15:00:55;;;;;;;3.40;3.20;;;;;;;;;;4962533;28;20227;-86
2021/12/31 15:03:22;;;;;;;3.60;3.30;;;;;;;;;;4963828;28;20244;-85
2021/12/31 15:05:50;;;;;;;3.60;3.23;;;;;;;;;;4962467;28;20208;-86
2021/12/31 15:08:17;;;;;;;3.63;3.33;;;;;;;;;;4961279;28;20259;-86
2021/12/31 15:10:47;;;;;;;4.03;3.73;;;;;;;;;;4963644;28;20295;-85
2021/12/31 15:52:56;;;;;;;12.57;10.03;;;;;;;;;;4720449;29;20233;-83
2021/12/31 15:55:25;;;;;;;9.63;8.27;;;;;;;;;;4815744;29;20213;-83
2021/12/31 15:57:52;;;;;;;7.87;6.67;;;;;;;;;;4843997;29;20294;-84
2021/12/31 16:00:19;;;;;;;7.87;6.07;;;;;;;;;;4896081;29;20238;-85
2021/12/31 16:02:46;;;;;;;7.30;6.43;;;;;;;;;;4920753;29;20319;-85
2021/12/31 16:05:15;;;;;;;7.60;6.47;;;;;;;;;;4941876;28;20200;-82
2021/12/31 16:07:43;;;;;;;6.00;5.40;;;;;;;;;;4961090;28;20214;-85
2021/12/31 16:10:12;;;;;;;5.70;5.17;;;;;;;;;;4955933;28;20280;-84
2021/12/31 16:12:39;;;;;;;8.37;5.60;;;;;;;;;;4957777;28;20219;-85
2021/12/31 16:15:07;;;;;;;6.37;5.77;;;;;;;;;;4965552;28;20226;-85
2021/12/31 16:17:35;;;;;;;6.70;5.87;;;;;;;;;;4966586;28;20235;-83
2021/12/31 16:20:02;;;;;;;7.27;6.50;;;;;;;;;;4960289;28;20228;-83
2021/12/31 16:22:30;;;;;;;7.23;6.53;;;;;;;;;;4960294;28;20219;-85
2021/12/31 16:24:57;;;;;;;7.27;6.53;;;;;;;;;;4960932;28;20290;-85
2021/12/31 16:27:26;;;;;;;6.50;5.90;;;;;;;;;;4959884;28;20205;-84
2021/12/31 16:29:55;;;;;;;10.13;8.00;;;;;;;;;;4959770;28;20192;-84
2021/12/31 16:32:23;;;;;;;9.67;8.03;;;;;;;;;;4961897;28;20284;-83
2021/12/31 16:34:50;;;;;;;8.50;7.60;;;;;;;;;;4970694;28;20207;-85
2021/12/31 16:37:17;;;;;;;10.60;8.70;;;;;;;;;;4965622;28;20196;-82
2021/12/31 16:39:52;;;;;;;10.93;9.30;;;;;;;;;;4961620;28;20347;-83
2021/12/31 16:42:20;;;;;;;10.87;8.97;;;;;;;;;;4954248;28;20223;-84
2021/12/31 16:44:49;;;;;;;8.97;7.87;;;;;;;;;;4969842;28;20285;-84
2021/12/31 16:47:17;;;;;;;9.33;8.40;;;;;;;;;;4971779;28;20209;-85
2021/12/31 16:49:44;;;;;;;8.60;7.80;;;;;;;;;;4968971;28;20196;-84
2021/12/31 16:52:12;;;;;;;10.73;9.57;;;;;;;;;;4980428;28;20251;-84
2021/12/31 16:54:39;;;;;;;17.10;15.30;;;;;;;;;;4982531;28;20200;-83
2021/12/31 16:57:07;;;;;;;10.10;8.90;;;;;;;;;;4973358;28;20207;-84
2021/12/31 16:59:34;;;;;;;11.37;10.17;;;;;;;;;;4971595;28;20279;-82
2021/12/31 17:02:05;;;;;;;9.47;8.47;;;;;;;;;;4965114;28;20263;-85
2021/12/31 17:04:34;;;;;;;10.43;9.40;;;;;;;;;;4969089;28;20324;-84
2021/12/31 17:07:01;;;;;;;8.33;7.43;;;;;;;;;;4972367;28;20200;-82
2021/12/31 17:09:29;;;;;;;8.70;7.63;;;;;;;;;;4967044;28;20255;-83